Time;durP1;ratioP1;P1;durP2;ratioP2;P2;SDS_P1;SDS_P2;PMS_P1;PMS_P2;Temp;Humidity;BMP_temperature;BMP_pressure;BME280_temperature;BME280_humidity;BME280_pressure;Samples;Min_cycle;Max_cycle;Signal;HPM_P1;HPM_P2
2023/07/12 00:00:27;;;;;;;6.43;1.90;;;20.00;99.90;;;;;;5075297;28;20179;-59
2023/07/12 00:02:54;;;;;;;4.15;1.45;;;19.80;99.90;;;;;;5075815;28;20158;-59
2023/07/12 00:05:19;;;;;;;9.50;2.15;;;19.80;99.90;;;;;;5075904;28;20213;-59
2023/07/12 00:07:46;;;;;;;4.88;1.90;;;19.60;99.90;;;;;;5075424;28;20174;-59
2023/07/12 00:10:18;;;;;;;6.93;2.00;;;19.30;99.90;;;;;;5075324;28;20574;-59
2023/07/12 00:12:43;;;;;;;4.63;2.10;;;19.10;99.90;;;;;;5075376;28;20167;-59
2023/07/12 00:15:11;;;;;;;6.15;2.10;;;18.90;99.90;;;;;;5075445;28;20262;-59
2023/07/12 00:17:37;;;;;;;4.43;2.10;;;18.70;99.90;;;;;;5069720;28;20223;-59
2023/07/12 00:20:04;;;;;;;7.60;2.60;;;18.50;99.90;;;;;;5054972;28;20655;-59
2023/07/12 00:22:29;;;;;;;6.22;2.15;;;18.50;99.90;;;;;;5055211;28;20171;-59
2023/07/12 00:24:55;;;;;;;5.10;2.00;;;18.30;99.90;;;;;;5055173;28;20178;-59
2023/07/12 00:27:20;;;;;;;6.88;2.28;;;18.30;99.90;;;;;;5037260;28;20281;-59
2023/07/12 00:29:46;;;;;;;6.60;2.13;;;18.20;99.90;;;;;;5054756;28;20168;-59
2023/07/12 00:32:11;;;;;;;5.80;2.42;;;18.10;99.90;;;;;;5055068;28;20214;-59
2023/07/12 00:34:37;;;;;;;5.35;2.22;;;18.00;99.90;;;;;;5037181;28;20633;-59
2023/07/12 00:37:03;;;;;;;5.10;2.33;;;17.90;99.90;;;;;;5055017;28;20171;-59
2023/07/12 00:39:28;;;;;;;8.65;2.75;;;17.90;99.90;;;;;;5054617;28;20209;-59
2023/07/12 00:42:11;;;;;;;6.90;2.53;;;17.90;99.90;;;;;;5054756;28;20632;-59
2023/07/12 00:44:47;;;;;;;4.93;2.30;;;17.80;99.90;;;;;;5054926;28;20238;-59
2023/07/12 00:47:14;;;;;;;4.85;2.45;;;17.30;99.90;;;;;;5054692;28;20159;-59
2023/07/12 00:49:40;;;;;;;4.38;2.20;;;17.30;99.90;;;;;;5054480;28;20190;-59
2023/07/12 00:52:17;;;;;;;4.95;2.25;;;17.30;99.90;;;;;;5054651;28;20531;-59
2023/07/12 00:54:54;;;;;;;6.97;2.65;;;17.40;99.90;;;;;;5054486;28;20616;-59
2023/07/12 00:57:25;;;;;;;6.60;2.50;;;17.30;99.90;;;;;;5054572;28;20170;-59
2023/07/12 01:00:10;;;;;;;7.40;2.85;;;17.50;99.90;;;;;;5054645;28;20584;-59
2023/07/12 01:02:43;;;;;;;7.60;2.75;;;17.50;99.90;;;;;;5054527;28;20242;-59
2023/07/12 01:05:09;;;;;;;5.45;2.63;;;17.60;99.90;;;;;;5054536;28;20181;-59
2023/07/12 01:07:34;;;;;;;5.90;2.50;;;17.60;99.90;;;;;;5054416;28;20536;-59
2023/07/12 01:10:00;;;;;;;7.70;2.90;;;17.40;99.90;;;;;;5054420;28;20171;-59
2023/07/12 01:12:26;;;;;;;6.03;2.40;;;17.50;99.90;;;;;;5053567;28;20182;-59
2023/07/12 01:14:52;;;;;;;7.65;2.50;;;17.50;99.90;;;;;;5054303;28;20176;-59
2023/07/12 01:17:20;;;;;;;5.55;2.55;;;17.50;99.90;;;;;;5053998;28;20317;-59
2023/07/12 01:19:45;;;;;;;6.18;2.47;;;17.50;99.90;;;;;;5054193;28;20262;-59
2023/07/12 01:22:11;;;;;;;8.45;2.40;;;17.40;99.90;;;;;;5054402;28;20263;-59
2023/07/12 01:24:37;;;;;;;5.25;2.30;;;17.50;99.90;;;;;;5054098;28;20658;-59
2023/07/12 01:27:29;;;;;;;7.72;2.42;;;17.60;99.90;;;;;;5054098;28;20179;-59
2023/07/12 01:29:54;;;;;;;4.43;2.28;;;17.60;99.90;;;;;;5049073;28;20195;-59
2023/07/12 01:32:21;;;;;;;4.93;2.45;;;17.50;99.90;;;;;;5053951;28;20178;-59
2023/07/12 01:34:46;;;;;;;4.18;1.98;;;17.40;99.90;;;;;;5053629;28;20172;-59
2023/07/12 01:37:13;;;;;;;4.60;2.25;;;17.30;99.90;;;;;;5053890;28;20179;-59
2023/07/12 01:39:38;;;;;;;4.88;2.55;;;17.30;99.90;;;;;;5053823;28;20306;-59
2023/07/12 01:42:04;;;;;;;5.10;2.35;;;17.20;99.90;;;;;;5053916;28;20310;-58
2023/07/12 01:44:30;;;;;;;5.35;2.30;;;17.20;99.90;;;;;;5053487;28;20167;-59
2023/07/12 01:46:56;;;;;;;4.80;2.60;;;17.20;99.90;;;;;;5053994;28;20183;-59
2023/07/12 01:49:22;;;;;;;6.75;2.53;;;17.30;99.90;;;;;;5053653;28;20250;-59
2023/07/12 01:51:49;;;;;;;3.95;2.25;;;17.10;99.90;;;;;;5053666;28;20249;-59
2023/07/12 01:54:15;;;;;;;5.22;2.60;;;17.20;99.90;;;;;;5053319;28;20584;-59
2023/07/12 01:56:41;;;;;;;5.63;2.58;;;17.20;99.90;;;;;;5053543;28;20179;-59
2023/07/12 01:59:06;;;;;;;5.07;2.10;;;17.20;99.90;;;;;;5053412;28;20202;-59
2023/07/12 02:01:32;;;;;;;4.90;2.17;;;17.10;99.90;;;;;;5053515;28;20183;-59
2023/07/12 02:03:57;;;;;;;5.25;2.35;;;17.20;99.90;;;;;;5053458;28;20182;-59
2023/07/12 02:06:23;;;;;;;5.47;2.35;;;17.00;99.90;;;;;;5053469;28;20262;-59
2023/07/12 02:08:49;;;;;;;5.38;2.40;;;17.10;99.90;;;;;;5053176;28;20261;-58
2023/07/12 02:11:15;;;;;;;4.88;2.50;;;17.10;99.90;;;;;;5053464;28;20194;-59
2023/07/12 02:13:41;;;;;;;4.97;2.65;;;17.00;99.90;;;;;;5053365;28;20588;-59
2023/07/12 02:16:06;;;;;;;5.60;2.55;;;17.10;99.90;;;;;;5053320;28;20267;-58
2023/07/12 02:18:32;;;;;;;4.82;2.30;;;17.10;99.90;;;;;;5052895;28;20227;-59
2023/07/12 02:20:57;;;;;;;5.82;2.58;;;17.00;99.90;;;;;;5053306;28;20171;-59
2023/07/12 02:23:23;;;;;;;5.65;2.55;;;17.10;99.90;;;;;;5054993;28;20584;-59
2023/07/12 02:25:49;;;;;;;6.47;2.40;;;17.10;99.90;;;;;;5057452;28;20175;-58
2023/07/12 02:28:14;;;;;;;5.68;2.03;;;16.90;99.90;;;;;;5057422;28;20178;-58
2023/07/12 02:30:42;;;;;;;6.13;2.72;;;16.90;99.90;;;;;;5057409;28;20305;-58
2023/07/12 02:33:08;;;;;;;3.30;2.25;;;17.00;99.90;;;;;;5057039;28;20632;-59
2023/07/12 02:35:33;;;;;;;6.15;2.40;;;17.00;99.90;;;;;;5057272;28;20220;-59
2023/07/12 02:38:00;;;;;;;7.15;2.80;;;17.00;99.90;;;;;;5057137;28;20211;-59
2023/07/12 02:40:27;;;;;;;4.85;2.25;;;17.00;99.90;;;;;;5057227;28;20243;-59
2023/07/12 02:42:54;;;;;;;6.10;2.30;;;17.10;99.90;;;;;;5057411;28;20686;-59
2023/07/12 02:45:19;;;;;;;8.40;2.60;;;17.10;99.90;;;;;;5057139;28;20213;-59
2023/07/12 02:47:45;;;;;;;4.53;2.33;;;17.20;99.90;;;;;;5056783;28;20175;-59
2023/07/12 02:50:11;;;;;;;4.82;2.30;;;17.00;99.90;;;;;;5056766;28;20174;-59
2023/07/12 02:52:37;;;;;;;7.47;2.60;;;16.90;99.90;;;;;;5056980;28;20217;-59
2023/07/12 02:55:03;;;;;;;5.38;2.60;;;17.00;99.90;;;;;;5056681;28;20194;-59
2023/07/12 02:57:29;;;;;;;5.55;2.33;;;17.00;99.90;;;;;;5056698;28;20171;-59
2023/07/12 02:59:54;;;;;;;6.65;2.53;;;16.90;99.90;;;;;;5057118;28;20189;-59
2023/07/12 03:02:20;;;;;;;7.10;2.55;;;16.80;99.90;;;;;;5056770;28;20233;-58
2023/07/12 03:04:46;;;;;;;4.95;2.55;;;16.80;99.90;;;;;;5056709;28;20603;-58
2023/07/12 03:07:11;;;;;;;6.15;2.40;;;16.80;99.90;;;;;;5056739;28;20175;-59
2023/07/12 03:09:38;;;;;;;7.05;2.47;;;16.80;99.90;;;;;;5056629;28;20575;-59
2023/07/12 03:12:04;;;;;;;8.23;2.65;;;16.90;99.90;;;;;;5056251;28;20664;-59
2023/07/12 03:14:30;;;;;;;5.03;2.30;;;16.80;99.90;;;;;;5056506;28;20190;-58
2023/07/12 03:16:55;;;;;;;6.95;2.67;;;16.90;99.90;;;;;;5056517;28;20172;-58
2023/07/12 03:19:22;;;;;;;6.45;2.65;;;16.80;99.90;;;;;;5056513;28;20239;-58
2023/07/12 03:21:48;;;;;;;4.80;2.20;;;16.90;99.90;;;;;;5056488;28;20171;-59
2023/07/12 03:24:14;;;;;;;5.70;2.15;;;16.80;99.90;;;;;;5056674;28;20260;-58
2023/07/12 03:26:39;;;;;;;5.25;2.45;;;16.80;99.90;;;;;;5056064;28;20628;-59
2023/07/12 03:29:05;;;;;;;4.82;2.50;;;16.70;99.90;;;;;;5056286;28;20272;-59
2023/07/12 03:31:34;;;;;;;5.72;2.30;;;16.90;99.90;;;;;;5056212;28;20172;-59
2023/07/12 03:34:03;;;;;;;5.38;2.58;;;16.90;99.90;;;;;;5055850;28;20194;-59
2023/07/12 03:36:30;;;;;;;5.57;2.65;;;16.90;99.90;;;;;;5037960;28;20705;-59
2023/07/12 03:38:57;;;;;;;8.30;2.78;;;16.80;99.90;;;;;;5056041;28;20211;-59
2023/07/12 03:41:23;;;;;;;6.68;2.67;;;16.70;99.90;;;;;;5055839;28;20171;-58
2023/07/12 03:43:49;;;;;;;6.57;2.58;;;16.70;99.90;;;;;;5055992;28;20179;-58
2023/07/12 03:46:15;;;;;;;5.63;2.72;;;16.80;99.90;;;;;;5056269;28;20175;-59
2023/07/12 03:48:41;;;;;;;6.75;2.90;;;16.90;99.90;;;;;;5055928;28;20710;-59
2023/07/12 03:51:08;;;;;;;5.88;2.55;;;16.80;99.90;;;;;;5055863;28;20179;-58
2023/07/12 03:53:34;;;;;;;4.45;2.55;;;16.70;99.90;;;;;;5055781;28;20183;-58
2023/07/12 03:56:01;;;;;;;7.90;2.90;;;16.80;99.90;;;;;;5055772;28;20195;-59
2023/07/12 03:58:29;;;;;;;7.13;3.00;;;16.90;99.90;;;;;;5055663;28;20656;-58
2023/07/12 04:00:55;;;;;;;8.10;2.67;;;17.00;99.90;;;;;;5041246;28;20180;-58
2023/07/12 04:03:21;;;;;;;8.68;3.00;;;17.00;99.90;;;;;;5035734;28;20183;-59
2023/07/12 04:05:50;;;;;;;6.05;3.00;;;17.00;99.90;;;;;;5035618;28;20233;-58
2023/07/12 04:08:16;;;;;;;7.88;3.10;;;17.00;99.90;;;;;;5035332;28;20641;-58
2023/07/12 04:10:42;;;;;;;7.20;2.90;;;17.00;99.90;;;;;;5035602;28;20172;-58
2023/07/12 04:13:07;;;;;;;6.05;2.95;;;17.00;99.90;;;;;;5035540;28;20182;-58
2023/07/12 04:15:34;;;;;;;6.63;2.88;;;16.90;99.90;;;;;;5035550;28;20175;-58
2023/07/12 04:18:00;;;;;;;6.22;2.90;;;16.90;99.90;;;;;;5034989;28;20581;-59
2023/07/12 04:20:25;;;;;;;9.18;3.10;;;16.90;99.90;;;;;;5035156;28;20176;-59
2023/07/12 04:22:52;;;;;;;6.45;2.80;;;16.90;99.90;;;;;;5035312;28;20179;-58
2023/07/12 04:25:18;;;;;;;8.45;3.15;;;17.10;99.90;;;;;;5035349;28;20172;-58
2023/07/12 04:27:44;;;;;;;7.50;3.17;;;17.20;99.90;;;;;;5034966;28;20190;-59
2023/07/12 04:30:12;;;;;;;7.80;2.75;;;17.20;99.90;;;;;;5035131;28;20537;-58
2023/07/12 04:32:38;;;;;;;8.63;3.30;;;17.10;99.90;;;;;;5035126;28;20190;-58
2023/07/12 04:35:04;;;;;;;4.78;2.88;;;17.10;99.90;;;;;;5035098;28;20704;-58
2023/07/12 04:37:30;;;;;;;7.53;3.30;;;17.20;99.90;;;;;;5034993;28;20182;-58
2023/07/12 04:39:56;;;;;;;8.57;3.33;;;17.10;99.90;;;;;;5035278;28;20229;-58
2023/07/12 04:42:22;;;;;;;6.90;2.58;;;17.10;99.90;;;;;;5034949;28;20624;-58
2023/07/12 04:44:48;;;;;;;9.20;3.30;;;17.10;99.90;;;;;;5034955;28;20172;-59
2023/07/12 04:47:16;;;;;;;7.68;3.25;;;17.10;99.90;;;;;;5033849;28;20176;-58
2023/07/12 04:49:43;;;;;;;7.65;3.10;;;17.10;99.90;;;;;;5035100;28;20171;-58
2023/07/12 04:52:11;;;;;;;7.53;2.92;;;17.00;99.90;;;;;;5034891;28;20173;-58
2023/07/12 04:54:42;;;;;;;6.55;3.03;;;17.10;99.90;;;;;;5034750;28;20179;-58
2023/07/12 04:57:08;;;;;;;7.25;2.83;;;17.10;99.90;;;;;;5034731;28;20158;-58
2023/07/12 04:59:38;;;;;;;8.55;3.10;;;17.20;99.90;;;;;;5034599;28;20239;-58
2023/07/12 05:02:04;;;;;;;6.63;3.25;;;17.20;99.90;;;;;;5034861;28;20172;-58
2023/07/12 05:04:29;;;;;;;7.43;3.25;;;17.30;99.90;;;;;;5034523;28;20256;-58
2023/07/12 05:06:55;;;;;;;8.65;3.00;;;17.30;99.90;;;;;;5034520;28;20298;-58
2023/07/12 05:09:21;;;;;;;9.85;3.08;;;17.20;99.90;;;;;;5034470;28;20238;-58
2023/07/12 05:11:51;;;;;;;9.40;3.05;;;17.20;99.90;;;;;;5034424;28;20203;-58
2023/07/12 05:14:17;;;;;;;7.68;2.95;;;17.20;99.90;;;;;;5033959;28;20176;-58
2023/07/12 05:16:42;;;;;;;6.78;3.25;;;17.20;99.90;;;;;;5034571;28;20176;-58
2023/07/12 05:19:08;;;;;;;8.50;3.10;;;17.30;99.90;;;;;;5034305;28;20274;-58
2023/07/12 05:21:34;;;;;;;7.72;3.15;;;17.20;99.90;;;;;;5034167;28;20186;-58
2023/07/12 05:23:59;;;;;;;7.05;3.17;;;17.20;99.90;;;;;;5034281;28;20614;-58
2023/07/12 05:26:25;;;;;;;5.68;2.90;;;17.30;99.90;;;;;;5034151;28;20180;-58
2023/07/12 05:28:51;;;;;;;6.82;2.95;;;17.40;99.90;;;;;;5034113;28;20191;-58
2023/07/12 05:31:17;;;;;;;6.45;3.05;;;17.20;99.90;;;;;;5033915;28;20183;-58
2023/07/12 05:33:46;;;;;;;8.23;3.40;;;17.30;99.90;;;;;;5033776;28;20259;-58
2023/07/12 05:36:12;;;;;;;8.25;2.90;;;17.20;99.90;;;;;;5033689;28;20255;-58
2023/07/12 05:38:38;;;;;;;5.55;3.00;;;17.30;99.90;;;;;;5033837;28;20770;-58
2023/07/12 05:41:04;;;;;;;11.27;3.08;;;17.40;99.90;;;;;;5033634;28;20188;-58
2023/07/12 05:43:29;;;;;;;8.50;3.40;;;17.40;99.90;;;;;;5033837;28;20259;-58
2023/07/12 05:45:56;;;;;;;11.45;3.45;;;17.40;99.90;;;;;;5033754;28;20184;-58
2023/07/12 05:48:22;;;;;;;10.95;3.55;;;17.40;99.90;;;;;;5033814;28;20685;-58
2023/07/12 05:50:52;;;;;;;9.35;3.03;;;17.50;99.90;;;;;;5033401;28;20704;-58
2023/07/12 05:53:18;;;;;;;9.38;3.03;;;17.50;99.90;;;;;;5033701;28;20717;-58
2023/07/12 05:55:43;;;;;;;8.38;3.05;;;17.60;99.90;;;;;;5033691;28;20176;-58
2023/07/12 05:58:09;;;;;;;8.95;3.70;;;17.60;99.90;;;;;;5033285;28;20315;-58
2023/07/12 06:00:35;;;;;;;6.72;3.08;;;17.60;99.90;;;;;;5033606;28;20176;-58
2023/07/12 06:03:01;;;;;;;10.70;3.65;;;17.70;99.90;;;;;;5033545;28;20178;-58
2023/07/12 06:05:26;;;;;;;10.68;3.47;;;17.70;99.90;;;;;;5033610;28;20176;-58
2023/07/12 06:07:52;;;;;;;7.65;3.05;;;17.70;99.90;;;;;;5033220;28;20180;-58
2023/07/12 06:10:18;;;;;;;8.93;3.10;;;17.70;99.90;;;;;;5033505;28;20176;-58
2023/07/12 06:12:44;;;;;;;9.20;3.67;;;17.70;99.90;;;;;;5033403;28;20176;-58
2023/07/12 06:15:10;;;;;;;10.30;3.17;;;17.70;99.90;;;;;;5033103;28;20176;-58
2023/07/12 06:17:36;;;;;;;11.10;3.53;;;17.80;99.90;;;;;;5033073;28;20270;-58
2023/07/12 06:20:03;;;;;;;9.30;3.13;;;17.80;99.90;;;;;;5033514;28;20596;-58
2023/07/12 06:22:29;;;;;;;12.07;3.40;;;17.80;99.90;;;;;;5033378;28;20222;-58
2023/07/12 06:24:55;;;;;;;10.40;3.50;;;17.90;99.90;;;;;;5033341;28;20176;-58
2023/07/12 06:27:21;;;;;;;9.73;3.20;;;18.00;99.90;;;;;;5033064;28;20299;-58
2023/07/12 06:29:47;;;;;;;11.15;3.25;;;18.00;99.90;;;;;;5033375;28;20183;-58
2023/07/12 06:32:14;;;;;;;9.45;3.20;;;18.00;99.90;;;;;;5033336;28;20194;-58
2023/07/12 06:34:39;;;;;;;13.73;3.45;;;17.90;99.90;;;;;;5033269;28;20625;-58
2023/07/12 06:37:06;;;;;;;8.95;3.38;;;17.90;99.90;;;;;;5033235;28;20213;-57
2023/07/12 06:39:33;;;;;;;7.68;3.42;;;17.90;99.90;;;;;;5033057;28;20215;-58
2023/07/12 06:41:58;;;;;;;9.10;3.25;;;17.90;99.90;;;;;;5033084;28;20187;-58
2023/07/12 06:44:24;;;;;;;10.13;3.33;;;18.00;99.90;;;;;;5033136;28;20176;-58
2023/07/12 06:46:50;;;;;;;7.57;3.15;;;17.90;99.90;;;;;;5032861;28;20230;-58
2023/07/12 06:49:15;;;;;;;9.00;3.45;;;18.00;99.90;;;;;;5033072;28;20266;-57
2023/07/12 06:51:46;;;;;;;8.68;3.28;;;18.00;99.90;;;;;;5032390;28;20238;-58
2023/07/12 06:54:15;;;;;;;10.30;3.25;;;18.00;99.90;;;;;;5032872;28;20160;-58
2023/07/12 06:56:41;;;;;;;9.75;3.08;;;18.10;99.90;;;;;;5032914;28;20186;-57
2023/07/12 06:59:07;;;;;;;7.65;2.92;;;17.90;99.90;;;;;;5032826;28;20294;-58
2023/07/12 07:01:33;;;;;;;8.70;3.25;;;18.00;99.90;;;;;;5032960;28;20187;-58
2023/07/12 07:03:59;;;;;;;8.77;3.45;;;17.90;99.90;;;;;;5049570;28;20187;-58
2023/07/12 07:06:25;;;;;;;8.48;3.25;;;18.10;99.90;;;;;;5052644;28;20620;-57
2023/07/12 07:08:51;;;;;;;9.82;3.63;;;18.20;99.90;;;;;;5052703;28;20249;-58
2023/07/12 07:11:17;;;;;;;6.43;3.53;;;18.30;99.90;;;;;;5055550;28;20245;-57
2023/07/12 07:13:43;;;;;;;8.95;3.75;;;18.30;99.90;;;;;;5056363;28;20172;-57
2023/07/12 07:16:09;;;;;;;9.52;3.28;;;18.30;99.90;;;;;;5056446;28;20171;-57
2023/07/12 07:18:35;;;;;;;12.82;3.70;;;18.30;99.90;;;;;;5051921;28;20231;-57
2023/07/12 07:21:01;;;;;;;7.53;3.13;;;18.20;99.90;;;;;;5056793;28;20176;-57
2023/07/12 07:23:27;;;;;;;9.45;3.50;;;18.30;99.90;;;;;;5056301;28;20171;-58
2023/07/12 07:25:52;;;;;;;8.35;3.40;;;18.40;99.90;;;;;;5038362;28;20190;-57
2023/07/12 07:28:20;;;;;;;9.82;3.58;;;18.40;99.90;;;;;;5056344;28;20179;-58
2023/07/12 07:30:55;;;;;;;8.18;3.60;;;18.50;99.90;;;;;;5056210;28;20187;-57
2023/07/12 07:33:21;;;;;;;6.40;3.05;;;18.50;99.90;;;;;;5056113;28;20241;-58
2023/07/12 07:35:47;;;;;;;10.43;3.38;;;18.50;99.90;;;;;;5055997;28;20207;-58
2023/07/12 07:38:13;;;;;;;7.75;3.13;;;18.50;99.90;;;;;;5056114;28;20211;-58
2023/07/12 07:40:42;;;;;;;9.50;3.30;;;18.60;99.90;;;;;;5056077;28;20190;-58
2023/07/12 07:43:10;;;;;;;7.22;3.10;;;18.50;99.90;;;;;;5056082;28;20183;-58
2023/07/12 07:45:35;;;;;;;9.13;3.58;;;18.50;99.90;;;;;;5038039;28;20495;-58
2023/07/12 07:48:01;;;;;;;6.22;3.20;;;18.50;99.90;;;;;;5055982;28;20186;-57
2023/07/12 07:50:27;;;;;;;8.43;2.97;;;18.50;99.90;;;;;;5055736;28;20591;-58
2023/07/12 07:52:53;;;;;;;6.00;3.00;;;18.50;99.90;;;;;;5055907;28;20172;-57
2023/07/12 07:55:20;;;;;;;10.10;3.50;;;18.60;99.90;;;;;;5055868;28;20498;-57
2023/07/12 07:57:46;;;;;;;8.15;3.55;;;18.60;99.90;;;;;;5055709;28;20258;-58
2023/07/12 08:00:13;;;;;;;10.15;3.33;;;18.70;99.90;;;;;;5055736;28;20262;-57
2023/07/12 08:02:43;;;;;;;8.02;3.35;;;18.80;99.90;;;;;;5055942;28;20601;-58
2023/07/12 08:05:13;;;;;;;10.07;3.20;;;19.20;99.90;;;;;;5055974;28;20163;-58
2023/07/12 08:07:44;;;;;;;7.47;3.03;;;19.20;99.90;;;;;;5055594;28;20175;-57
2023/07/12 08:10:13;;;;;;;7.97;3.10;;;19.10;99.90;;;;;;5055321;28;20629;-58
2023/07/12 08:12:39;;;;;;;8.40;2.90;;;18.90;99.90;;;;;;5055451;28;20180;-58
2023/07/12 08:15:05;;;;;;;9.70;3.28;;;18.70;99.90;;;;;;5055424;28;20186;-57
2023/07/12 08:17:31;;;;;;;11.80;3.88;;;18.70;99.90;;;;;;5055219;28;20590;-57
2023/07/12 08:19:57;;;;;;;11.27;3.28;;;18.70;99.90;;;;;;5054889;28;20202;-58
2023/07/12 08:22:24;;;;;;;8.73;3.33;;;18.80;99.90;;;;;;5055079;28;20179;-57
2023/07/12 08:24:50;;;;;;;9.93;3.70;;;18.90;99.90;;;;;;5055272;28;20179;-57
2023/07/12 08:27:18;;;;;;;9.32;3.40;;;19.40;99.90;;;;;;5055205;28;20322;-57
2023/07/12 08:29:44;;;;;;;10.85;3.60;;;19.60;99.90;;;;;;5055435;28;20424;-58
2023/07/12 08:32:10;;;;;;;9.32;3.25;;;19.70;99.90;;;;;;5048263;28;20274;-57
2023/07/12 08:34:36;;;;;;;9.98;3.35;;;20.00;99.90;;;;;;5040216;28;20179;-57
2023/07/12 08:37:02;;;;;;;11.60;3.72;;;20.10;99.90;;;;;;5034329;28;20199;-61
2023/07/12 08:39:28;;;;;;;14.73;3.42;;;20.10;99.90;;;;;;5034767;28;20226;-61
2023/07/12 08:41:54;;;;;;;12.15;3.05;;;19.90;99.90;;;;;;5035035;28;20195;-61
2023/07/12 08:44:20;;;;;;;9.43;3.53;;;20.00;99.90;;;;;;5034782;28;20238;-62
2023/07/12 08:46:51;;;;;;;6.88;2.72;;;20.10;99.90;;;;;;5034769;28;20192;-61
2023/07/12 08:49:18;;;;;;;10.18;2.90;;;20.40;99.90;;;;;;5034664;28;20645;-61
2023/07/12 08:51:44;;;;;;;8.90;2.95;;;20.70;99.90;;;;;;5034417;28;20164;-61
2023/07/12 08:54:23;;;;;;;10.15;3.20;;;21.10;99.90;;;;;;5034284;28;20537;-61
2023/07/12 08:57:02;;;;;;;8.52;2.83;;;21.00;99.90;;;;;;5034715;28;20191;-61
2023/07/12 08:59:28;;;;;;;7.65;2.83;;;21.00;99.90;;;;;;5034211;28;20740;-61
2023/07/12 09:01:53;;;;;;;10.63;2.60;;;21.10;99.90;;;;;;5044962;28;20172;-61
2023/07/12 09:04:27;;;;;;;9.00;3.03;;;21.00;99.90;;;;;;5034391;28;20202;-61
2023/07/12 09:06:55;;;;;;;8.05;2.35;;;21.00;99.90;;;;;;5034377;28;20164;-61
2023/07/12 09:09:21;;;;;;;6.18;2.38;;;21.40;99.90;;;;;;5034090;28;20588;-61
2023/07/12 09:11:47;;;;;;;7.30;2.15;;;21.40;99.90;;;;;;5034204;28;20176;-61
2023/07/12 09:14:18;;;;;;;5.50;2.20;;;21.30;99.90;;;;;;5034155;28;20172;-61
2023/07/12 09:16:47;;;;;;;7.95;2.45;;;21.40;99.90;;;;;;5044605;28;20194;-61
2023/07/12 09:19:25;;;;;;;8.43;2.40;;;21.40;99.90;;;;;;5050550;28;20707;-61
2023/07/12 09:21:56;;;;;;;10.80;2.63;;;21.20;99.90;;;;;;5054157;28;20242;-61
2023/07/12 09:24:32;;;;;;;6.97;2.10;;;21.10;99.90;;;;;;5045453;28;20251;-61
2023/07/12 09:27:15;;;;;;;9.50;2.60;;;21.20;99.90;;;;;;5033968;28;20160;-61
2023/07/12 09:29:40;;;;;;;7.05;2.58;;;21.50;99.90;;;;;;5033961;28;20175;-61
2023/07/12 09:32:24;;;;;;;6.55;2.30;;;21.70;99.90;;;;;;5033301;28;20180;-61
2023/07/12 09:34:54;;;;;;;6.20;1.85;;;21.70;99.90;;;;;;5033790;28;20665;-61
2023/07/12 09:37:24;;;;;;;6.22;2.00;;;22.00;99.90;;;;;;5043892;28;20175;-61
2023/07/12 09:39:57;;;;;;;6.22;2.22;;;21.90;99.90;;;;;;5036902;28;20290;-60
2023/07/12 09:42:24;;;;;;;6.38;2.35;;;22.10;99.90;;;;;;5033815;28;20509;-61
2023/07/12 09:44:51;;;;;;;6.22;2.20;;;21.70;99.90;;;;;;5033715;28;20199;-60
2023/07/12 09:47:19;;;;;;;7.82;2.50;;;21.40;99.90;;;;;;5033618;28;20175;-61
2023/07/12 09:50:04;;;;;;;7.40;2.15;;;21.40;99.90;;;;;;5033511;28;20172;-61
2023/07/12 09:52:45;;;;;;;6.32;2.25;;;21.00;99.90;;;;;;5016117;28;20526;-61
2023/07/12 09:55:23;;;;;;;5.45;2.10;;;20.80;99.90;;;;;;5044872;28;20213;-61
2023/07/12 09:57:49;;;;;;;5.72;2.00;;;20.60;99.90;;;;;;5048519;28;20168;-61
2023/07/12 10:00:30;;;;;;;5.18;2.08;;;20.50;99.90;;;;;;5033411;28;20572;-60
2023/07/12 10:03:04;;;;;;;7.07;2.40;;;21.00;99.90;;;;;;5033810;28;20171;-60
2023/07/12 10:05:31;;;;;;;8.07;2.35;;;21.60;99.90;;;;;;5032736;28;20418;-56
2023/07/12 10:08:12;;;;;;;9.35;2.65;;;22.00;99.90;;;;;;5032972;28;20835;-58
2023/07/12 10:10:49;;;;;;;8.63;1.77;;;22.40;99.90;;;;;;5032998;28;20514;-57
2023/07/12 10:13:23;;;;;;;9.15;2.40;;;22.70;99.90;;;;;;5037796;28;20167;-57
2023/07/12 10:15:49;;;;;;;5.60;1.77;;;22.80;99.90;;;;;;5044436;28;20225;-58
2023/07/12 10:18:22;;;;;;;8.68;2.17;;;23.10;99.90;;;;;;5032939;28;20231;-58
2023/07/12 10:20:48;;;;;;;5.32;1.98;;;23.40;99.90;;;;;;5046669;28;20171;-58
2023/07/12 10:23:17;;;;;;;8.63;2.20;;;23.50;99.90;;;;;;5053208;28;20175;-58
2023/07/12 10:25:48;;;;;;;7.95;2.00;;;23.80;99.90;;;;;;5037486;28;20226;-59
2023/07/12 10:28:16;;;;;;;4.53;1.52;;;23.90;99.90;;;;;;5032817;28;20506;-59
2023/07/12 10:30:46;;;;;;;6.85;1.80;;;23.80;99.90;;;;;;5033131;28;20172;-59
2023/07/12 10:33:32;;;;;;;4.63;1.75;;;23.70;99.90;;;;;;5043634;28;20180;-59
2023/07/12 10:36:04;;;;;;;4.50;1.73;;;23.00;99.90;;;;;;5053035;28;20246;-59
2023/07/12 10:38:30;;;;;;;5.35;1.75;;;22.80;99.90;;;;;;5052896;28;20195;-59
2023/07/12 10:40:58;;;;;;;4.85;1.50;;;22.60;99.90;;;;;;5052841;28;20177;-58
2023/07/12 10:43:32;;;;;;;4.68;1.92;;;22.90;99.90;;;;;;5053100;28;20629;-57
2023/07/12 10:46:06;;;;;;;5.47;1.88;;;22.70;99.90;;;;;;5042600;28;20194;-57
2023/07/12 10:48:32;;;;;;;6.05;1.77;;;22.40;99.90;;;;;;5037016;28;20626;-57
2023/07/12 10:51:30;;;;;;;4.75;1.67;;;22.40;99.90;;;;;;5037028;28;20180;-57
2023/07/12 10:53:56;;;;;;;8.68;2.17;;;22.40;99.90;;;;;;5037063;28;20160;-57
2023/07/12 10:56:31;;;;;;;7.22;2.58;;;22.70;99.90;;;;;;5037036;28;20526;-57
2023/07/12 10:59:24;;;;;;;5.63;2.00;;;23.00;99.90;;;;;;5036888;28;20241;-57
2023/07/12 11:01:53;;;;;;;7.50;1.70;;;23.40;99.90;;;;;;5036340;28;20537;-57
2023/07/12 11:04:27;;;;;;;5.55;2.05;;;23.70;99.90;;;;;;5036814;28;20191;-57
2023/07/12 11:06:57;;;;;;;4.20;1.70;;;23.70;99.90;;;;;;5036837;28;20187;-57
2023/07/12 11:09:23;;;;;;;6.35;2.08;;;23.50;99.90;;;;;;5036755;28;20172;-57
2023/07/12 11:12:05;;;;;;;4.82;2.03;;;23.00;99.90;;;;;;5036427;28;20657;-57
2023/07/12 11:14:41;;;;;;;4.88;2.00;;;23.00;99.90;;;;;;5036775;28;20159;-57
2023/07/12 11:17:07;;;;;;;7.75;2.65;;;22.90;99.90;;;;;;5036279;28;20184;-57
2023/07/12 11:19:39;;;;;;;7.22;1.85;;;23.00;99.90;;;;;;5036497;28;20215;-57
2023/07/12 11:22:43;;;;;;;6.28;1.70;;;23.30;99.90;;;;;;5036582;28;20564;-57
2023/07/12 11:25:27;;;;;;;7.47;2.00;;;23.10;99.90;;;;;;5036393;28;20517;-57
2023/07/12 11:27:53;;;;;;;6.75;1.90;;;22.50;99.90;;;;;;5036632;28;20160;-58
2023/07/12 11:30:26;;;;;;;5.03;1.60;;;22.30;99.90;;;;;;5037090;28;20183;-57
2023/07/12 11:33:15;;;;;;;3.38;1.40;;;22.50;99.90;;;;;;5055786;28;20171;-57
2023/07/12 11:35:49;;;;;;;4.60;1.40;;;23.00;99.90;;;;;;5055588;28;20270;-58
2023/07/12 11:38:27;;;;;;;4.88;1.38;;;23.40;99.90;;;;;;5055865;28;20199;-58
2023/07/12 11:40:54;;;;;;;2.28;1.33;;;23.60;99.90;;;;;;5055860;28;20171;-58
2023/07/12 11:43:28;;;;;;;5.22;1.70;;;23.30;99.90;;;;;;5055916;28;20178;-58
2023/07/12 11:45:56;;;;;;;3.88;1.38;;;23.10;99.90;;;;;;5055719;28;20710;-60
2023/07/12 11:48:24;;;;;;;2.75;1.23;;;22.90;99.90;;;;;;5055869;28;20191;-59
2023/07/12 11:50:52;;;;;;;2.90;1.23;;;22.70;99.90;;;;;;5055651;28;20228;-59
2023/07/12 11:53:20;;;;;;;3.90;1.40;;;22.30;99.90;;;;;;5055631;28;20171;-59
2023/07/12 11:55:49;;;;;;;2.38;1.05;;;22.20;99.90;;;;;;5054711;28;20652;-60
2023/07/12 11:58:17;;;;;;;6.32;1.35;;;22.30;99.90;;;;;;5055510;28;20243;-60
2023/07/12 12:00:44;;;;;;;2.42;1.20;;;22.30;99.90;;;;;;5055495;28;20171;-60
2023/07/12 12:03:13;;;;;;;5.85;1.48;;;22.40;99.90;;;;;;5055483;28;20613;-60
2023/07/12 12:05:39;;;;;;;4.22;1.42;;;22.70;99.90;;;;;;5055335;28;20690;-60
2023/07/12 12:08:06;;;;;;;1.80;1.20;;;23.30;99.90;;;;;;5055405;28;20182;-60
2023/07/12 12:10:37;;;;;;;2.75;1.27;;;23.60;99.90;;;;;;5055401;28;20176;-60
2023/07/12 12:13:18;;;;;;;2.75;1.13;;;23.70;99.90;;;;;;5054700;28;20164;-60
2023/07/12 12:15:47;;;;;;;1.85;1.10;;;23.40;99.90;;;;;;5043868;28;20176;-60
2023/07/12 12:18:22;;;;;;;4.15;1.27;;;23.20;99.90;;;;;;5051374;28;20231;-60
2023/07/12 12:21:14;;;;;;;2.08;1.25;;;23.00;99.90;;;;;;5041875;28;20168;-60
2023/07/12 12:23:42;;;;;;;3.72;1.27;;;22.80;99.90;;;;;;5035532;28;20157;-60
2023/07/12 12:26:32;;;;;;;4.60;1.50;;;22.80;99.90;;;;;;5035119;28;20168;-60
2023/07/12 12:29:00;;;;;;;6.80;1.40;;;23.00;99.90;;;;;;5035075;28;20629;-60
2023/07/12 12:31:29;;;;;;;5.30;1.33;;;22.90;99.90;;;;;;5034894;28;20172;-60
2023/07/12 12:34:13;;;;;;;3.08;1.15;;;23.00;99.90;;;;;;5034663;28;20629;-61
2023/07/12 12:36:38;;;;;;;3.10;1.23;;;23.30;99.90;;;;;;5034850;28;20168;-60
2023/07/12 12:39:19;;;;;;;3.47;1.08;;;23.70;99.90;;;;;;5039416;28;20633;-60
2023/07/12 12:41:52;;;;;;;4.40;1.30;;;24.00;99.90;;;;;;5054428;28;20660;-60
2023/07/12 12:44:18;;;;;;;3.33;1.15;;;24.10;99.90;;;;;;5054775;28;20628;-60
2023/07/12 12:46:48;;;;;;;3.28;1.35;;;24.30;99.90;;;;;;5054411;28;20223;-60
2023/07/12 12:49:27;;;;;;;3.75;1.05;;;24.70;99.90;;;;;;5048219;28;20200;-60
2023/07/12 12:51:55;;;;;;;4.32;1.13;;;24.70;99.90;;;;;;5034673;28;20164;-60